Time;durP1;ratioP1;P1;durP2;ratioP2;P2;SDS_P1;SDS_P2;PMS_P1;PMS_P2;Temp;Humidity;BMP_temperature;BMP_pressure;BME280_temperature;BME280_humidity;BME280_pressure;Samples;Min_cycle;Max_cycle;Signal;HPM_P1;HPM_P2
2023/06/21 00:00:45;;;;;;;;;;;;;;;16.52;55.06;100839.91;5057807;28;1138;-55
2023/06/21 00:03:10;;;;;;;;;;;;;;;16.98;56.44;100834.50;5047199;28;1044;-56
2023/06/21 00:05:38;;;;;;;;;;;;;;;17.78;56.71;100836.56;5037783;28;1910;-54
2023/06/21 00:08:04;;;;;;;;;;;;;;;17.23;56.94;100832.84;5049062;28;1020;-55
2023/06/21 00:10:30;;;;;;;;;;;;;;;16.99;56.06;100832.59;5044241;28;1063;-55
2023/06/21 00:12:55;;;;;;;;;;;;;;;16.86;55.93;100836.69;5046038;28;985;-56
2023/06/21 00:15:21;;;;;;;;;;;;;;;16.76;55.55;100835.56;5055688;28;1123;-53
2023/06/21 00:17:46;;;;;;;;;;;;;;;16.68;55.32;100822.38;5057881;28;1060;-56
2023/06/21 00:20:12;;;;;;;;;;;;;;;16.66;54.77;100824.59;5057537;28;1505;-55
2023/06/21 00:22:38;;;;;;;;;;;;;;;16.53;54.98;100827.84;5056894;28;1063;-50
2023/06/21 00:25:04;;;;;;;;;;;;;;;16.81;56.29;100825.69;5044104;28;1903;-50
2023/06/21 00:27:29;;;;;;;;;;;;;;;17.71;56.88;100827.81;5039209;28;1115;-52
2023/06/21 00:29:55;;;;;;;;;;;;;;;17.17;56.79;100828.47;5057612;28;1080;-53
2023/06/21 00:32:20;;;;;;;;;;;;;;;16.98;56.40;100823.50;5039762;28;1195;-57
2023/06/21 00:34:47;;;;;;;;;;;;;;;16.80;55.88;100824.03;5036027;28;1236;-53
2023/06/21 00:37:13;;;;;;;;;;;;;;;16.74;55.55;100821.28;5019942;28;1162;-59
2023/06/21 00:39:38;;;;;;;;;;;;;;;16.66;55.10;100819.09;5037565;28;1258;-55
2023/06/21 00:42:05;;;;;;;;;;;;;;;16.65;54.86;100817.44;5037646;28;1040;-56
2023/06/21 00:44:31;;;;;;;;;;;;;;;16.59;54.62;100819.34;5054691;28;1897;-55
2023/06/21 00:46:56;;;;;;;;;;;;;;;16.51;54.79;100810.81;5039250;28;1233;-56
2023/06/21 00:49:21;;;;;;;;;;;;;;;17.49;57.09;100808.03;5043704;28;1189;-56
2023/06/21 00:51:47;;;;;;;;;;;;;;;17.34;56.93;100807.00;5057374;28;1111;-57
2023/06/21 00:54:18;;;;;;;;;;;;;;;17.09;56.21;100805.09;5039298;28;1084;-55
2023/06/21 00:56:46;;;;;;;;;;;;;;;16.83;56.18;100801.50;5039068;28;1215;-57
2023/06/21 00:59:12;;;;;;;;;;;;;;;16.74;55.74;100799.31;5052155;28;1053;-56
2023/06/21 01:01:37;;;;;;;;;;;;;;;16.65;55.46;100811.94;5048338;28;1057;-57
2023/06/21 01:04:03;;;;;;;;;;;;;;;16.63;54.78;100808.63;5056870;28;1964;-52
2023/06/21 01:06:34;;;;;;;;;;;;;;;16.55;54.65;100796.28;5057302;28;1140;-54
2023/06/21 01:09:03;;;;;;;;;;;;;;;16.49;54.67;100807.53;5056167;28;1092;-50
2023/06/21 01:11:35;;;;;;;;;;;;;;;16.63;56.09;100818.81;5034322;28;1060;-56
2023/06/21 01:14:01;;;;;;;;;;;;;;;17.79;56.87;100810.72;5025764;28;1352;-52
2023/06/21 01:16:29;;;;;;;;;;;;;;;17.37;56.85;100809.19;5056637;28;1105;-52
2023/06/21 01:18:54;;;;;;;;;;;;;;;16.99;56.52;100808.69;5056753;28;1210;-53
2023/06/21 01:21:22;;;;;;;;;;;;;;;16.88;56.02;100807.84;5056690;28;1142;-53
2023/06/21 01:23:52;;;;;;;;;;;;;;;16.74;55.78;100809.47;5049342;28;1131;-54
2023/06/21 01:26:36;;;;;;;;;;;;;;;16.63;55.38;100802.31;5018365;28;1984;-48
2023/06/21 01:29:11;;;;;;;;;;;;;;;16.62;54.72;100800.69;5056826;28;1354;-54
2023/06/21 01:31:40;;;;;;;;;;;;;;;16.52;54.67;100806.97;5039048;28;1064;-52
2023/06/21 01:34:06;;;;;;;;;;;;;;;17.19;57.03;100813.31;5038574;28;1218;-50
2023/06/21 01:36:31;;;;;;;;;;;;;;;17.58;57.01;100803.63;5034187;28;1148;-49
2023/06/21 01:38:57;;;;;;;;;;;;;;;17.11;56.99;100811.16;5036332;28;1167;-54
2023/06/21 01:41:23;;;;;;;;;;;;;;;16.89;56.38;100808.69;5040517;28;1156;-54
2023/06/21 01:43:49;;;;;;;;;;;;;;;16.85;55.68;100816.63;5055999;28;1064;-51
2023/06/21 01:46:15;;;;;;;;;;;;;;;16.80;55.28;100818.53;5021911;28;2056;-55
2023/06/21 01:48:41;;;;;;;;;;;;;;;16.71;54.98;100821.81;5055744;28;1251;-54
2023/06/21 01:51:06;;;;;;;;;;;;;;;16.57;54.97;100818.78;5037931;28;1518;-54
2023/06/21 01:53:32;;;;;;;;;;;;;;;16.48;54.91;100811.34;5055829;28;1092;-52
2023/06/21 01:55:58;;;;;;;;;;;;;;;16.47;54.87;100816.03;5056096;28;1083;-53
2023/06/21 01:58:23;;;;;;;;;;;;;;;17.43;57.12;100815.47;5027602;28;1116;-52
2023/06/21 02:00:49;;;;;;;;;;;;;;;17.63;57.03;100814.63;5014376;28;1322;-52
2023/06/21 02:03:15;;;;;;;;;;;;;;;17.15;56.75;100816.91;5047216;28;1083;-53
2023/06/21 02:05:41;;;;;;;;;;;;;;;16.96;56.23;100814.72;5038272;28;1968;-52
2023/06/21 02:08:11;;;;;;;;;;;;;;;16.79;56.06;100822.38;5038259;28;1136;-56
2023/06/21 02:10:37;;;;;;;;;;;;;;;16.69;55.57;100829.53;5038627;28;1098;-49
2023/06/21 02:13:02;;;;;;;;;;;;;;;16.68;55.01;100827.06;5026425;28;1013;-53
2023/06/21 02:15:28;;;;;;;;;;;;;;;16.60;54.78;100825.66;5035714;28;1168;-55
2023/06/21 02:17:53;;;;;;;;;;;;;;;16.60;55.30;100831.97;5029591;28;1232;-49
2023/06/21 02:20:20;;;;;;;;;;;;;;;17.69;57.08;100835.50;5055883;28;1083;-53
2023/06/21 02:22:46;;;;;;;;;;;;;;;17.37;57.27;100828.41;5055946;28;1035;-53
2023/06/21 02:25:11;;;;;;;;;;;;;;;17.10;56.40;100832.28;5050805;28;1906;-53
2023/06/21 02:27:37;;;;;;;;;;;;;;;16.93;56.18;100829.84;5046805;28;1005;-52
2023/06/21 02:30:04;;;;;;;;;;;;;;;16.83;55.64;100835.31;5033733;28;1191;-52
2023/06/21 02:32:30;;;;;;;;;;;;;;;16.74;55.45;100843.25;5028850;28;1159;-54
2023/06/21 02:34:55;;;;;;;;;;;;;;;16.67;55.10;100831.69;5055378;28;1141;-50
2023/06/21 02:37:21;;;;;;;;;;;;;;;16.62;55.12;100833.63;5047378;28;859;-52
2023/06/21 02:39:46;;;;;;;;;;;;;;;16.55;55.57;100837.47;5056908;28;1060;-51
2023/06/21 02:42:12;;;;;;;;;;;;;;;17.69;57.46;100830.00;5041923;28;1232;-48
2023/06/21 02:44:37;;;;;;;;;;;;;;;17.34;57.18;100839.97;5059547;28;1973;-47
2023/06/21 02:47:04;;;;;;;;;;;;;;;17.06;56.43;100844.94;5041657;28;1641;-49
2023/06/21 02:49:36;;;;;;;;;;;;;;;16.94;55.96;100847.13;5023794;28;1314;-52
2023/06/21 02:52:02;;;;;;;;;;;;;;;16.80;55.73;100852.31;5051128;28;1119;-50
2023/06/21 02:54:28;;;;;;;;;;;;;;;16.69;55.14;100848.75;5041208;28;1088;-52
2023/06/21 02:56:53;;;;;;;;;;;;;;;16.68;55.11;100849.84;5059408;28;1036;-48
2023/06/21 02:59:19;;;;;;;;;;;;;;;16.55;54.88;100848.44;5058890;28;1167;-52
2023/06/21 03:01:47;;;;;;;;;;;;;;;16.55;54.77;100842.94;5047892;28;1000;-53
2023/06/21 03:04:13;;;;;;;;;;;;;;;16.51;54.57;100844.59;5057576;28;1902;-52
2023/06/21 03:06:39;;;;;;;;;;;;;;;16.57;55.12;100850.91;5041403;28;1144;-50
2023/06/21 03:09:04;;;;;;;;;;;;;;;17.61;57.21;100856.16;5054167;28;1135;-50
2023/06/21 03:11:30;;;;;;;;;;;;;;;17.40;57.17;100844.38;5032634;28;1151;-53
2023/06/21 03:13:55;;;;;;;;;;;;;;;17.12;56.34;100851.25;5022897;28;1627;-49
2023/06/21 03:16:21;;;;;;;;;;;;;;;16.96;55.86;100850.44;5032894;28;1108;-49
2023/06/21 03:18:47;;;;;;;;;;;;;;;16.77;55.58;100842.72;5041041;28;1234;-49
2023/06/21 03:21:13;;;;;;;;;;;;;;;16.71;55.35;100843.78;5058990;28;1040;-48
2023/06/21 03:23:39;;;;;;;;;;;;;;;16.64;55.19;100848.72;5040641;28;1342;-52
2023/06/21 03:26:06;;;;;;;;;;;;;;;16.58;54.82;100845.16;5029246;28;1973;-49
2023/06/21 03:28:31;;;;;;;;;;;;;;;17.08;56.78;100842.75;5057165;28;1139;-49
2023/06/21 03:30:57;;;;;;;;;;;;;;;17.54;57.04;100846.53;5058723;28;1035;-50
2023/06/21 03:33:23;;;;;;;;;;;;;;;17.08;57.02;100844.66;5045635;28;1168;-49
2023/06/21 03:35:49;;;;;;;;;;;;;;;16.95;56.09;100848.78;5040482;28;1524;-50
2023/06/21 03:38:15;;;;;;;;;;;;;;;16.86;55.68;100853.16;5044954;28;1123;-48
2023/06/21 03:40:41;;;;;;;;;;;;;;;16.77;55.44;100859.19;5041039;28;1176;-52
2023/06/21 03:43:07;;;;;;;;;;;;;;;16.66;55.20;100863.03;5058034;28;1072;-52
2023/06/21 03:45:33;;;;;;;;;;;;;;;16.73;55.85;100857.25;5040790;28;1903;-54
2023/06/21 03:48:04;;;;;;;;;;;;;;;16.58;55.25;100852.56;5039363;28;1200;-54
2023/06/21 03:50:31;;;;;;;;;;;;;;;16.52;54.95;100862.72;5028543;28;1196;-55
2023/06/21 03:52:57;;;;;;;;;;;;;;;16.70;55.90;100857.78;5026260;28;1259;-56
2023/06/21 03:55:22;;;;;;;;;;;;;;;17.78;57.07;100861.31;5057955;28;1025;-55
2023/06/21 03:57:48;;;;;;;;;;;;;;;17.28;57.21;100852.09;5058110;28;1144;-54
2023/06/21 04:00:15;;;;;;;;;;;;;;;17.01;56.71;100853.19;5036805;28;1313;-54
2023/06/21 04:02:51;;;;;;;;;;;;;;;16.88;56.08;100853.69;5031950;28;1285;-55
2023/06/21 04:05:17;;;;;;;;;;;;;;;16.80;55.59;100867.97;5040389;28;1910;-54
2023/06/21 04:07:43;;;;;;;;;;;;;;;16.72;55.29;100867.41;5040245;28;1187;-55
2023/06/21 04:10:09;;;;;;;;;;;;;;;16.66;55.04;100865.78;5039831;28;1205;-56
2023/06/21 04:12:36;;;;;;;;;;;;;;;16.53;55.02;100864.34;5057796;28;1130;-56
2023/06/21 04:15:01;;;;;;;;;;;;;;;16.51;54.82;100851.97;5021682;28;1262;-54
2023/06/21 04:17:30;;;;;;;;;;;;;;;16.52;54.46;100867.38;5045607;28;1107;-55
2023/06/21 04:19:56;;;;;;;;;;;;;;;16.70;55.73;100864.09;5025446;28;1155;-55
2023/06/21 04:22:23;;;;;;;;;;;;;;;17.74;56.94;100860.25;5051530;28;1255;-53
2023/06/21 04:24:49;;;;;;;;;;;;;;;17.24;56.80;100864.72;5039281;28;1910;-53
2023/06/21 04:27:15;;;;;;;;;;;;;;;17.00;56.34;100881.75;5043093;28;1024;-51
2023/06/21 04:29:41;;;;;;;;;;;;;;;16.83;56.01;100878.41;5027247;28;1274;-51
2023/06/21 04:32:08;;;;;;;;;;;;;;;16.76;55.59;100882.25;5058241;28;1020;-52
2023/06/21 04:34:34;;;;;;;;;;;;;;;16.70;55.42;100883.31;5054298;28;1122;-53
2023/06/21 04:37:05;;;;;;;;;;;;;;;16.64;54.96;100884.41;5047145;28;1107;-53
2023/06/21 04:39:30;;;;;;;;;;;;;;;16.56;55.03;100890.44;5040113;28;1092;-54
2023/06/21 04:41:58;;;;;;;;;;;;;;;16.53;55.08;100888.22;5051120;28;1211;-49
2023/06/21 04:44:24;;;;;;;;;;;;;;;17.48;57.25;100884.22;5056217;28;1902;-51
2023/06/21 04:46:50;;;;;;;;;;;;;;;17.34;56.92;100883.94;5057372;28;1155;-51
2023/06/21 04:49:17;;;;;;;;;;;;;;;16.98;56.99;100891.38;5048807;28;1091;-52
2023/06/21 04:51:43;;;;;;;;;;;;;;;16.86;56.64;100891.63;5051586;28;1122;-50
2023/06/21 04:54:08;;;;;;;;;;;;;;;16.80;55.99;100885.25;5056879;28;1126;-47
2023/06/21 04:56:35;;;;;;;;;;;;;;;17.21;56.19;100890.81;5055310;28;1138;-51
2023/06/21 04:59:01;;;;;;;;;;;;;;;16.46;56.10;100893.16;5045034;28;1088;-50
2023/06/21 05:01:27;;;;;;;;;;;;;;;16.32;54.50;100893.66;5055660;28;1116;-52
2023/06/21 05:03:52;;;;;;;;;;;;;;;16.24;53.10;100899.66;5037142;28;1179;-51
2023/06/21 05:06:20;;;;;;;;;;;;;;;16.14;52.43;100899.63;5036897;28;1909;-52
2023/06/21 05:08:45;;;;;;;;;;;;;;;16.14;51.77;100903.19;5036949;28;1262;-49
2023/06/21 05:11:11;;;;;;;;;;;;;;;16.02;51.57;100897.09;5052535;28;1068;-51
2023/06/21 05:13:37;;;;;;;;;;;;;;;15.98;51.29;100894.06;5047411;28;1398;-52
2023/06/21 05:16:02;;;;;;;;;;;;;;;16.01;50.71;100884.47;5049511;28;1279;-52
2023/06/21 05:18:28;;;;;;;;;;;;;;;15.86;50.83;100894.25;5056576;28;1114;-47
2023/06/21 05:20:53;;;;;;;;;;;;;;;15.83;50.75;100896.72;5056902;28;1250;-50
2023/06/21 05:23:19;;;;;;;;;;;;;;;15.84;50.36;100898.38;5056598;28;1226;-54
2023/06/21 05:25:44;;;;;;;;;;;;;;;15.84;50.61;100895.63;5056247;28;1913;-52
2023/06/21 05:28:10;;;;;;;;;;;;;;;15.86;50.23;100897.00;5037253;28;1118;-51
2023/06/21 05:30:35;;;;;;;;;;;;;;;15.87;50.06;100895.09;5049204;28;1053;-54
2023/06/21 05:33:01;;;;;;;;;;;;;;;15.82;50.01;100897.81;5056491;28;1229;-53
2023/06/21 05:35:26;;;;;;;;;;;;;;;15.84;49.87;100896.47;5056377;28;1095;-49
2023/06/21 05:37:53;;;;;;;;;;;;;;;15.89;49.69;100903.88;5050170;28;1186;-51
2023/06/21 05:40:19;;;;;;;;;;;;;;;15.81;49.69;100898.88;5049248;28;1135;-51
2023/06/21 05:42:45;;;;;;;;;;;;;;;15.82;49.67;100897.81;5056228;28;1149;-51
2023/06/21 05:45:10;;;;;;;;;;;;;;;15.80;49.41;100895.34;5056055;28;1975;-52
2023/06/21 05:47:36;;;;;;;;;;;;;;;15.80;49.48;100891.78;5056487;28;1134;-51
2023/06/21 05:50:02;;;;;;;;;;;;;;;15.72;49.77;100888.41;5055951;28;1179;-50
2023/06/21 05:52:28;;;;;;;;;;;;;;;15.69;49.54;100888.94;5055874;28;1071;-51
2023/06/21 05:54:54;;;;;;;;;;;;;;;15.73;49.46;100891.97;5056114;28;1059;-51
2023/06/21 05:57:19;;;;;;;;;;;;;;;15.78;49.52;100891.16;5055731;28;1382;-51
2023/06/21 05:59:45;;;;;;;;;;;;;;;15.72;49.29;100888.41;5056188;28;1243;-52
2023/06/21 06:02:10;;;;;;;;;;;;;;;15.76;49.31;100894.19;5050317;28;1122;-50
2023/06/21 06:04:37;;;;;;;;;;;;;;;15.74;49.37;100891.72;5048285;28;1910;-50
2023/06/21 06:07:03;;;;;;;;;;;;;;;15.68;49.72;100892.78;5055502;28;1167;-51
2023/06/21 06:09:28;;;;;;;;;;;;;;;15.73;49.28;100894.72;5056195;28;1032;-51
2023/06/21 06:11:55;;;;;;;;;;;;;;;15.72;49.47;100896.66;5059279;28;1058;-51
2023/06/21 06:14:20;;;;;;;;;;;;;;;15.68;49.62;100892.78;5050362;28;1134;-52
2023/06/21 06:16:46;;;;;;;;;;;;;;;15.71;49.47;100897.72;5057953;28;1068;-50
2023/06/21 06:19:11;;;;;;;;;;;;;;;15.74;49.24;100897.19;5061473;28;1048;-51
2023/06/21 06:21:37;;;;;;;;;;;;;;;15.73;49.11;100898.28;5053198;28;1453;-52
2023/06/21 06:24:03;;;;;;;;;;;;;;;15.74;49.15;100901.88;5062058;28;1115;-50
2023/06/21 06:26:28;;;;;;;;;;;;;;;15.67;49.57;100901.25;5054813;28;2323;-50
2023/06/21 06:28:54;;;;;;;;;;;;;;;15.67;49.22;100896.59;5053445;28;1135;-52
2023/06/21 06:31:20;;;;;;;;;;;;;;;15.73;49.38;100894.72;5057480;28;1183;-50
2023/06/21 06:33:45;;;;;;;;;;;;;;;15.78;48.96;100894.75;5054063;28;1024;-53
2023/06/21 06:36:11;;;;;;;;;;;;;;;15.71;49.15;100892.25;5062131;28;1123;-53
2023/06/21 06:38:36;;;;;;;;;;;;;;;15.69;49.13;100891.66;5061910;28;1304;-52
2023/06/21 06:41:02;;;;;;;;;;;;;;;15.76;48.99;100887.88;5062032;28;1269;-49
2023/06/21 06:43:27;;;;;;;;;;;;;;;15.79;48.94;100895.56;5061172;28;1217;-51
2023/06/21 06:45:53;;;;;;;;;;;;;;;15.66;49.45;100889.47;5059602;28;1906;-53
2023/06/21 06:48:18;;;;;;;;;;;;;;;15.70;49.20;100887.84;5041860;28;1164;-52
2023/06/21 06:50:44;;;;;;;;;;;;;;;15.81;48.92;100885.19;5055424;28;1065;-53
2023/06/21 06:53:09;;;;;;;;;;;;;;;15.67;49.21;100890.28;5061774;28;1128;-53
2023/06/21 06:55:35;;;;;;;;;;;;;;;15.73;49.31;100886.50;5062336;28;1155;-52
2023/06/21 06:58:01;;;;;;;;;;;;;;;15.71;49.45;100886.75;5062479;28;1210;-53
2023/06/21 07:00:27;;;;;;;;;;;;;;;15.78;49.26;100880.22;5062216;28;1100;-53
2023/06/21 07:02:56;;;;;;;;;;;;;;;15.67;49.34;100884.78;5052343;28;1092;-53
2023/06/21 07:05:22;;;;;;;;;;;;;;;15.79;49.22;100881.88;5045533;28;1981;-52
2023/06/21 07:07:48;;;;;;;;;;;;;;;15.71;49.25;100880.44;5053124;28;870;-53
2023/06/21 07:10:13;;;;;;;;;;;;;;;15.68;49.39;100878.22;5045039;28;1143;-52
2023/06/21 07:12:39;;;;;;;;;;;;;;;15.60;49.59;100878.72;5062299;28;1128;-53
2023/06/21 07:15:05;;;;;;;;;;;;;;;15.72;49.19;100874.72;5060981;28;1000;-52
2023/06/21 07:17:30;;;;;;;;;;;;;;;15.84;48.83;100879.19;5042186;28;1136;-52
2023/06/21 07:19:56;;;;;;;;;;;;;;;15.80;49.25;100878.06;5043392;28;1148;-53
2023/06/21 07:22:22;;;;;;;;;;;;;;;15.79;49.01;100874.47;5061416;28;1067;-51
2023/06/21 07:24:47;;;;;;;;;;;;;;;15.73;49.24;100873.59;5039081;28;1898;-49
2023/06/21 07:27:12;;;;;;;;;;;;;;;15.72;49.40;100876.59;5058423;28;1238;-51
2023/06/21 07:29:38;;;;;;;;;;;;;;;15.77;49.43;100879.38;5058748;28;1078;-49
2023/06/21 07:32:03;;;;;;;;;;;;;;;15.78;49.13;100874.72;5059115;28;1171;-53
2023/06/21 07:34:29;;;;;;;;;;;;;;;15.76;49.51;100866.75;5045886;28;1075;-53
2023/06/21 07:36:55;;;;;;;;;;;;;;;15.79;49.14;100859.94;5059001;28;1285;-53
2023/06/21 07:39:20;;;;;;;;;;;;;;;15.79;49.20;100868.16;5058413;28;1052;-53
2023/06/21 07:41:46;;;;;;;;;;;;;;;15.83;48.94;100867.38;5058731;28;1305;-51
2023/06/21 07:44:11;;;;;;;;;;;;;;;15.74;49.29;100856.06;5059053;28;1300;-53
2023/06/21 07:46:37;;;;;;;;;;;;;;;15.81;49.08;100860.50;5058643;28;1918;-53
2023/06/21 07:49:02;;;;;;;;;;;;;;;15.80;49.16;100872.59;5058589;28;1282;-52
2023/06/21 07:51:28;;;;;;;;;;;;;;;15.85;49.04;100861.63;5053404;28;898;-54
2023/06/21 07:53:53;;;;;;;;;;;;;;;15.86;49.17;100863.28;5057563;28;1112;-54
2023/06/21 07:56:19;;;;;;;;;;;;;;;15.80;49.39;100861.63;5057054;28;1238;-54
2023/06/21 07:58:46;;;;;;;;;;;;;;;15.89;49.11;100865.47;5055550;28;1297;-53
2023/06/21 08:01:12;;;;;;;;;;;;;;;15.83;49.29;100867.38;5057860;28;1214;-52
2023/06/21 08:03:37;;;;;;;;;;;;;;;15.90;48.97;100850.69;5057530;28;1174;-54
2023/06/21 08:06:03;;;;;;;;;;;;;;;15.80;49.21;100856.13;5057465;28;1983;-52
2023/06/21 08:08:28;;;;;;;;;;;;;;;15.87;49.02;100853.97;5058340;28;1387;-54
2023/06/21 08:10:56;;;;;;;;;;;;;;;15.90;49.15;100853.44;5058290;28;1135;-50
2023/06/21 08:13:22;;;;;;;;;;;;;;;15.87;49.29;100851.22;5057981;28;1051;-52
2023/06/21 08:15:48;;;;;;;;;;;;;;;15.92;48.88;100853.97;5050977;28;910;-51
2023/06/21 08:18:13;;;;;;;;;;;;;;;15.99;49.56;100854.59;5051395;28;1033;-58
2023/06/21 08:20:40;;;;;;;;;;;;;;;15.98;49.59;100860.34;5057910;28;1040;-57
2023/06/21 08:23:06;;;;;;;;;;;;;;;15.90;49.96;100867.16;5058053;28;1179;-57
2023/06/21 08:25:32;;;;;;;;;;;;;;;15.97;49.72;100859.50;5058394;28;1913;-57
2023/06/21 08:27:57;;;;;;;;;;;;;;;15.99;49.36;100873.78;5044139;28;941;-57
2023/06/21 08:30:23;;;;;;;;;;;;;;;15.92;49.46;100864.94;5044951;28;1064;-57
2023/06/21 08:32:48;;;;;;;;;;;;;;;15.95;49.39;100861.69;5057655;28;1018;-57
2023/06/21 08:35:14;;;;;;;;;;;;;;;15.98;49.41;100863.91;5057681;28;1210;-57
2023/06/21 08:37:39;;;;;;;;;;;;;;;15.91;49.45;100866.06;5057623;28;1297;-56
2023/06/21 08:40:05;;;;;;;;;;;;;;;16.03;49.05;100863.94;5045284;28;902;-57
2023/06/21 08:42:30;;;;;;;;;;;;;;;15.99;49.06;100868.28;5056503;28;1064;-58
2023/06/21 08:44:56;;;;;;;;;;;;;;;16.01;50.33;100859.78;5040037;28;1910;-60
2023/06/21 08:47:26;;;;;;;;;;;;;;;16.08;49.91;100863.94;5057557;28;1195;-57
2023/06/21 08:49:52;;;;;;;;;;;;;;;16.05;49.45;100864.47;5057222;28;1234;-59
2023/06/21 08:52:19;;;;;;;;;;;;;;;16.06;49.62;100855.16;5031921;28;1152;-58
2023/06/21 08:54:46;;;;;;;;;;;;;;;16.05;50.30;100867.22;5049626;28;1220;-58
2023/06/21 08:57:19;;;;;;;;;;;;;;;16.09;49.76;100864.78;5056581;28;1306;-58
2023/06/21 08:59:49;;;;;;;;;;;;;;;16.10;49.68;100866.41;5056986;28;1059;-58
2023/06/21 09:02:17;;;;;;;;;;;;;;;15.97;50.05;100862.25;5056173;28;1211;-58
2023/06/21 09:04:43;;;;;;;;;;;;;;;16.03;49.71;100855.69;5056359;28;1969;-58
2023/06/21 09:07:08;;;;;;;;;;;;;;;16.11;49.54;100856.28;5056833;28;1230;-58
2023/06/21 09:09:34;;;;;;;;;;;;;;;16.12;49.41;100863.38;5039027;28;1254;-58
2023/06/21 09:11:59;;;;;;;;;;;;;;;16.04;49.24;100860.06;5039404;28;1426;-58
2023/06/21 09:14:31;;;;;;;;;;;;;;;16.01;49.54;100857.06;5056977;28;1325;-58
2023/06/21 09:16:58;;;;;;;;;;;;;;;16.01;49.23;100866.09;5039127;28;1092;-58
2023/06/21 09:19:23;;;;;;;;;;;;;;;15.97;49.40;100856.75;5057158;28;1250;-58
2023/06/21 09:21:49;;;;;;;;;;;;;;;16.09;49.06;100856.53;5057149;28;1206;-58
2023/06/21 09:24:14;;;;;;;;;;;;;;;16.05;49.22;100867.22;5038945;28;1314;-58
2023/06/21 09:26:40;;;;;;;;;;;;;;;16.02;49.34;100867.75;5038871;28;2004;-58
2023/06/21 09:29:05;;;;;;;;;;;;;;;16.00;49.26;100867.19;5056827;28;1246;-58
2023/06/21 09:31:30;;;;;;;;;;;;;;;16.03;49.40;100869.41;5056870;28;1383;-58
2023/06/21 09:33:57;;;;;;;;;;;;;;;16.01;49.37;100868.84;5056901;28;1237;-58
2023/06/21 09:36:23;;;;;;;;;;;;;;;16.06;49.30;100860.66;5056801;28;1304;-58
2023/06/21 09:38:48;;;;;;;;;;;;;;;16.04;49.52;100854.59;5038868;28;1162;-59
2023/06/21 09:41:14;;;;;;;;;;;;;;;16.02;49.32;100854.03;5043488;28;1059;-57
2023/06/21 09:43:40;;;;;;;;;;;;;;;15.98;49.37;100858.41;5038270;28;1241;-58
2023/06/21 09:46:11;;;;;;;;;;;;;;;16.03;49.37;100855.69;5055588;28;1908;-58
2023/06/21 09:48:40;;;;;;;;;;;;;;;15.95;49.38;100858.09;5056135;28;1215;-61
2023/06/21 09:51:06;;;;;;;;;;;;;;;16.05;49.23;100852.69;5056391;28;1484;-55
2023/06/21 09:53:32;;;;;;;;;;;;;;;16.03;49.28;100858.44;5043564;28;1179;-57
2023/06/21 09:56:00;;;;;;;;;;;;;;;16.04;49.29;100854.59;5056074;28;1198;-59
2023/06/21 09:58:25;;;;;;;;;;;;;;;15.99;49.53;100853.75;5056514;28;1067;-57
2023/06/21 10:00:51;;;;;;;;;;;;;;;15.92;49.60;100843.00;5056554;28;1020;-57
2023/06/21 10:03:20;;;;;;;;;;;;;;;15.99;49.41;100840.88;5056396;28;1071;-58
2023/06/21 10:05:52;;;;;;;;;;;;;;;15.97;49.56;100850.44;5030990;28;1981;-58
2023/06/21 10:08:21;;;;;;;;;;;;;;;16.07;49.23;100847.75;5056458;28;1266;-57
2023/06/21 10:10:47;;;;;;;;;;;;;;;16.06;49.38;100849.66;5056554;28;1284;-58
2023/06/21 10:13:12;;;;;;;;;;;;;;;16.07;49.12;100834.03;5038693;28;1144;-58
2023/06/21 10:15:38;;;;;;;;;;;;;;;16.10;49.10;100838.16;5055889;28;1167;-58
2023/06/21 10:18:06;;;;;;;;;;;;;;;16.11;49.12;100831.59;5056078;28;1314;-58
2023/06/21 10:20:31;;;;;;;;;;;;;;;16.04;49.53;100835.38;5038888;28;1064;-57
2023/06/21 10:22:57;;;;;;;;;;;;;;;16.11;49.30;100837.06;5056322;28;1254;-59
2023/06/21 10:25:22;;;;;;;;;;;;;;;16.10;49.26;100841.72;5021915;28;1910;-58
2023/06/21 10:27:48;;;;;;;;;;;;;;;16.13;49.12;100840.34;5037878;28;1072;-58
2023/06/21 10:30:19;;;;;;;;;;;;;;;16.08;49.26;100832.94;5025313;28;1111;-59
2023/06/21 10:32:44;;;;;;;;;;;;;;;16.04;49.39;100832.63;5039014;28;1152;-58
2023/06/21 10:35:12;;;;;;;;;;;;;;;16.13;49.11;100835.72;5038053;28;1068;-56
2023/06/21 10:37:38;;;;;;;;;;;;;;;16.04;49.53;100821.66;5037691;28;1294;-58
2023/06/21 10:40:07;;;;;;;;;;;;;;;16.05;49.21;100826.06;5055472;28;1270;-58
2023/06/21 10:42:32;;;;;;;;;;;;;;;16.11;49.00;100834.31;5043778;28;1192;-56
2023/06/21 10:44:59;;;;;;;;;;;;;;;16.13;49.16;100824.75;5037831;28;1914;-57
2023/06/21 10:47:24;;;;;;;;;;;;;;;16.05;48.97;100831.56;5055710;28;1269;-59
2023/06/21 10:49:50;;;;;;;;;;;;;;;16.08;49.04;100820.03;5034636;28;1266;-57
2023/06/21 10:52:15;;;;;;;;;;;;;;;16.10;48.90;100825.25;5034403;28;1036;-56
2023/06/21 10:54:41;;;;;;;;;;;;;;;16.10;48.86;100835.41;5021059;28;1119;-56
2023/06/21 10:57:06;;;;;;;;;;;;;;;16.11;48.71;100826.91;5035917;28;1111;-57
2023/06/21 10:59:32;;;;;;;;;;;;;;;16.06;48.96;100826.88;5035076;28;1063;-58
2023/06/21 11:01:57;;;;;;;;;;;;;;;16.15;48.60;100827.22;5038372;28;1294;-57
2023/06/21 11:04:23;;;;;;;;;;;;;;;16.11;48.68;100823.34;5037716;28;1910;-58
2023/06/21 11:06:48;;;;;;;;;;;;;;;16.05;48.80;100833.47;5039316;28;1293;-57
2023/06/21 11:09:16;;;;;;;;;;;;;;;16.12;48.89;100823.09;5037906;28;1134;-58
2023/06/21 11:11:51;;;;;;;;;;;;;;;16.05;49.00;100820.59;5039850;28;1163;-58
2023/06/21 11:14:35;;;;;;;;;;;;;;;16.14;48.52;100822.81;5039928;28;1084;-58
2023/06/21 11:17:05;;;;;;;;;;;;;;;16.07;48.78;100823.91;5037152;28;1157;-62
2023/06/21 11:19:31;;;;;;;;;;;;;;;15.97;49.12;100821.09;5038173;28;1076;-58
2023/06/21 11:21:57;;;;;;;;;;;;;;;16.12;48.76;100819.50;5039373;28;1293;-60
2023/06/21 11:24:22;;;;;;;;;;;;;;;16.12;48.61;100819.50;5038996;28;1981;-59
2023/06/21 11:27:03;;;;;;;;;;;;;;;16.05;48.93;100817.03;5037674;28;1372;-58
2023/06/21 11:29:35;;;;;;;;;;;;;;;16.06;48.73;100822.25;5038237;28;1115;-59
2023/06/21 11:32:16;;;;;;;;;;;;;;;16.13;48.89;100823.91;5039251;28;1202;-57
2023/06/21 11:34:56;;;;;;;;;;;;;;;16.12;48.81;100824.97;5038968;28;1100;-59
2023/06/21 11:37:40;;;;;;;;;;;;;;;16.06;48.85;100822.25;5038013;28;1119;-59
2023/06/21 11:40:10;;;;;;;;;;;;;;;16.03;48.91;100820.03;5038082;28;1305;-59
2023/06/21 11:42:45;;;;;;;;;;;;;;;16.04;48.89;100809.88;5038281;28;1246;-59
2023/06/21 11:45:31;;;;;;;;;;;;;;;16.13;48.83;100810.19;5026203;28;1975;-60
2023/06/21 11:48:00;;;;;;;;;;;;;;;16.02;48.82;100810.16;5039341;28;1321;-59
2023/06/21 11:50:32;;;;;;;;;;;;;;;16.03;49.09;100816.44;5059157;28;1372;-62
2023/06/21 11:53:10;;;;;;;;;;;;;;;16.12;48.52;100819.50;5058517;28;1187;-63
2023/06/21 11:55:35;;;;;;;;;;;;;;;16.05;49.11;100815.09;5058330;28;1298;-62
2023/06/21 11:58:01;;;;;;;;;;;;;;;16.13;48.88;100815.66;5040679;28;1318;-61
2023/06/21 12:00:26;;;;;;;;;;;;;;;16.07;49.21;100815.66;5058577;28;1389;-64
2023/06/21 12:02:53;;;;;;;;;;;;;;;16.07;49.19;100818.41;5040832;28;1254;-62
2023/06/21 12:05:19;;;;;;;;;;;;;;;16.08;49.00;100819.22;5057618;28;1968;-59
2023/06/21 12:07:44;;;;;;;;;;;;;;;16.13;49.09;100818.41;5057982;28;1384;-59
2023/06/21 12:10:10;;;;;;;;;;;;;;;16.02;49.13;100821.13;5057443;28;1404;-57
2023/06/21 12:12:36;;;;;;;;;;;;;;;16.12;48.89;100833.22;5058151;28;1209;-59
2023/06/21 12:15:01;;;;;;;;;;;;;;;16.05;48.99;100841.72;5058156;28;1286;-64
2023/06/21 12:17:27;;;;;;;;;;;;;;;16.05;48.82;100845.28;5057961;28;1180;-59
2023/06/21 12:19:52;;;;;;;;;;;;;;;16.17;48.89;100846.97;5057261;28;1395;-59
2023/06/21 12:22:18;;;;;;;;;;;;;;;16.02;49.21;100854.03;5039115;28;1380;-58
2023/06/21 12:24:44;;;;;;;;;;;;;;;16.08;48.90;100855.69;5039960;28;1980;-59
2023/06/21 12:27:11;;;;;;;;;;;;;;;16.10;48.91;100844.47;5057869;28;1438;-58
2023/06/21 12:29:37;;;;;;;;;;;;;;;15.98;48.95;100841.13;5056774;28;1118;-56
2023/06/21 12:32:03;;;;;;;;;;;;;;;16.01;48.99;100838.66;5057764;28;1082;-57
2023/06/21 12:34:28;;;;;;;;;;;;;;;16.01;48.95;100824.16;5057328;28;1431;-60
2023/06/21 12:36:54;;;;;;;;;;;;;;;16.02;48.82;100836.75;5057804;28;1337;-62
2023/06/21 12:39:21;;;;;;;;;;;;;;;16.02;49.03;100843.06;5057518;28;1091;-62
2023/06/21 12:41:47;;;;;;;;;;;;;;;15.96;48.92;100833.16;5057186;28;1108;-58
2023/06/21 12:44:19;;;;;;;;;;;;;;;15.98;48.79;100843.88;5057159;28;1321;-59